Rejestracja

Wszystkie dane podawane są w czasie UTC za wyjątkiem miejsc gdzie jest jednoznacznie podane, że jest inaczej. Dane podawane w serwisie mają charakter informacyjny!!!
Informacje w sprawie dostępu do serwisu pod numerem tel. +48 261-828-559 lub +48 261-828-138
Informacja dla żołnierzy i pracowników wojska: Prosimy o niezwłoczną zmianę adresu e-mail w profilu użytkownika na pocztę w domenie @ron.mil.pl
Brak służbowego adresu e-mail skutkuje usunięciem konta.

Aktualna Pogoda
 
Pogoda w Polsce
25°C Szczecin 15°C Suwałki 20°C Warszawa 23°C Poznan
22°C Opole 23°C Kraków 19°C Rzeszów
Więcej miast w Polsce

Pogoda w Europie
26°C Berlin 24°C Paryz 25°C Bruksela 7°C Oslo
24°C Praga 23°C Zagrzeb
Więcej miast w Europie

Metary wojskowe test
METAR EPBC 091600Z AUTO 18004KT CAVOK 21/02 Q1015=
METAR EPCE 091630Z 17010KT 120V200 CAVOK 20/06 Q1011 RMK 198 040 1/1=
METAR EPDA 091630Z 20009KT 180V240 CAVOK 22/07 Q1009 RMK 223 036 2/2=
METAR EPDE 091630Z 15008KT CAVOK 19/01 Q1018 RMK 193 029 3/3=
METAR EPIR 091630Z 14014KT CAVOK 21/06 Q1012 RMK 206 039 5/5=
METAR EPKS 091630Z 14009KT CAVOK 22/06 Q1011 RMK 217 037 6/6=
METAR EPLK 091630Z 20008KT CAVOK 21/06 Q1014 RMK 210 038 3/3=
METAR EPLY 091600Z 18010KT CAVOK 22/06 Q1014 RMK 215 037 3/3=
METAR EPMB 091630Z AUTO 16010KT 9999 ////// 19/09 Q1013 RMK 192 051 ///=
METAR EPMI 091630Z 17007KT 120V240 CAVOK 23/03 Q1010 RMK 231 027 4/4=
METAR EPMM 091630Z 19009KT 160V220 CAVOK 18/00 Q1017 RMK 183 030 3/3=
METAR EPOK 091630Z 14008KT 9999 FEW070 BKN247 17/06 Q1011 RMK 173 048 5/1=
METAR EPPR 091600Z 14010KT CAVOK 20/06 Q1012 RMK 202 038 3/3=
METAR EPPW 091630Z 18010KT CAVOK 20/07 Q1012 RMK 214 039 3/3=
METAR EPSN 091630Z 19007KT 160V220 CAVOK 23/07 Q1009 RMK 226 036 0/0=
METAR EPTM 091600Z 15010KT CAVOK 21/03 Q1015 RMK 206 032 2/2=


 

Prawa autorskie©2007 SSH SZ RP. Wszelkie prawa zastrzeżone.